Time;durP1;ratioP1;P1;durP2;ratioP2;P2;SDS_P1;SDS_P2;PMS_P1;PMS_P2;Temp;Humidity;BMP_temperature;BMP_pressure;BME280_temperature;BME280_humidity;BME280_pressure;Samples;Min_cycle;Max_cycle;Signal;HPM_P1;HPM_P2
2022/05/28 00:00:14;;;;;;;1.50;1.10;;;11.80;91.40;;;;;;5050763;28;20466;-81
2022/05/28 00:02:42;;;;;;;1.50;1.10;;;11.80;91.30;;;;;;5042344;28;20482;-81
2022/05/28 00:05:10;;;;;;;1.47;1.00;;;11.90;91.30;;;;;;5035809;28;20607;-83
2022/05/28 00:07:37;;;;;;;1.50;1.10;;;11.80;91.50;;;;;;5036526;28;20510;-80
2022/05/28 00:10:05;;;;;;;1.50;1.20;;;11.80;91.40;;;;;;5035943;28;20496;-81
2022/05/28 00:12:32;;;;;;;1.50;1.10;;;11.80;91.10;;;;;;5041519;28;20919;-81
2022/05/28 00:15:00;;;;;;;1.50;1.10;;;11.80;91.50;;;;;;5051490;28;20464;-81
2022/05/28 00:17:26;;;;;;;1.50;1.10;;;11.80;91.50;;;;;;5048037;28;20547;-81
2022/05/28 00:19:54;;;;;;;1.50;1.10;;;11.70;91.80;;;;;;5039242;28;20463;-81
2022/05/28 00:22:22;;;;;;;1.47;1.10;;;11.70;91.50;;;;;;5049931;28;20583;-83
2022/05/28 00:24:49;;;;;;;1.40;1.10;;;11.70;91.90;;;;;;5059487;28;20827;-82
2022/05/28 00:27:16;;;;;;;1.47;1.10;;;11.70;92.10;;;;;;5046712;28;20463;-81
2022/05/28 00:29:43;;;;;;;1.47;1.00;;;11.70;91.80;;;;;;5039892;28;20835;-82
2022/05/28 00:32:10;;;;;;;1.50;1.20;;;11.80;91.80;;;;;;5042874;28;20462;-81
2022/05/28 00:34:40;;;;;;;1.43;1.10;;;11.80;91.70;;;;;;5053379;28;20463;-80
2022/05/28 00:37:08;;;;;;;1.50;1.10;;;11.80;91.40;;;;;;5029205;28;20460;-81
2022/05/28 00:39:36;;;;;;;1.50;1.10;;;11.90;91.50;;;;;;5040443;28;20543;-84
2022/05/28 00:42:03;;;;;;;1.43;1.00;;;11.90;91.20;;;;;;5041413;28;20481;-84
2022/05/28 00:44:30;;;;;;;1.47;1.10;;;11.90;91.30;;;;;;5059987;28;20517;-82
2022/05/28 00:46:59;;;;;;;1.43;1.10;;;11.90;91.50;;;;;;5050028;28;20465;-81
2022/05/28 00:49:30;;;;;;;1.47;1.10;;;11.90;91.30;;;;;;5058863;28;20494;-83
2022/05/28 00:52:00;;;;;;;1.50;1.17;;;11.90;91.40;;;;;;5045203;28;20470;-81
2022/05/28 00:54:31;;;;;;;1.47;1.10;;;11.90;91.60;;;;;;5059419;28;20895;-81
2022/05/28 00:57:00;;;;;;;1.50;1.20;;;11.90;91.80;;;;;;5046059;28;20466;-82
2022/05/28 00:59:27;;;;;;;1.50;1.10;;;11.90;92.30;;;;;;5038818;28;20479;-80
2022/05/28 01:01:59;;;;;;;1.50;1.10;;;12.00;92.30;;;;;;5043749;28;20478;-81
2022/05/28 01:04:33;;;;;;;1.47;1.10;;;12.00;92.20;;;;;;5034394;28;20458;-81
2022/05/28 01:07:09;;;;;;;1.50;1.20;;;12.00;91.80;;;;;;5030921;28;20464;-81
2022/05/28 01:09:46;;;;;;;1.50;1.10;;;12.10;91.90;;;;;;5039126;28;20481;-83
2022/05/28 01:12:20;;;;;;;1.50;1.10;;;12.20;92.30;;;;;;5047808;28;20477;-82
2022/05/28 01:14:54;;;;;;;1.43;1.00;;;12.20;92.00;;;;;;5054128;28;20458;-81
2022/05/28 01:17:28;;;;;;;1.50;1.10;;;12.20;91.60;;;;;;5035648;28;20464;-80
2022/05/28 01:20:02;;;;;;;1.50;1.10;;;12.30;91.60;;;;;;5050783;28;21051;-81
2022/05/28 01:22:45;;;;;;;1.50;1.10;;;12.30;91.40;;;;;;5040478;28;20491;-82
2022/05/28 01:25:21;;;;;;;1.50;1.10;;;12.30;91.60;;;;;;5028030;28;21077;-82
2022/05/28 01:27:51;;;;;;;1.47;1.03;;;12.30;91.60;;;;;;5036675;28;20485;-81
2022/05/28 01:30:19;;;;;;;1.50;1.00;;;12.40;91.10;;;;;;5055527;28;20486;-83
2022/05/28 01:32:50;;;;;;;1.43;1.00;;;12.30;91.20;;;;;;5024780;28;20967;-83
2022/05/28 01:35:19;;;;;;;1.67;1.57;;;12.30;91.00;;;;;;5031273;28;20695;-81
2022/05/28 01:37:49;;;;;;;1.50;1.10;;;12.40;91.10;;;;;;5029050;28;21008;-83
2022/05/28 01:40:17;;;;;;;1.50;1.10;;;12.30;91.50;;;;;;5035950;28;20456;-81
2022/05/28 01:42:49;;;;;;;1.50;1.10;;;12.40;91.80;;;;;;5047477;28;20490;-80
2022/05/28 01:45:19;;;;;;;1.47;1.10;;;12.40;92.00;;;;;;5058379;28;20462;-83
2022/05/28 01:47:47;;;;;;;1.50;1.20;;;12.40;91.90;;;;;;5033657;28;20490;-80
2022/05/28 01:50:19;;;;;;;1.50;1.07;;;12.40;92.20;;;;;;5031332;28;20463;-81
2022/05/28 01:52:46;;;;;;;1.50;1.10;;;12.40;92.20;;;;;;5050582;28;20450;-80
2022/05/28 01:55:16;;;;;;;1.47;1.00;;;12.40;91.70;;;;;;5048779;28;20474;-82
2022/05/28 01:57:44;;;;;;;1.50;1.10;;;12.40;91.90;;;;;;5032844;28;20594;-81
2022/05/28 02:00:13;;;;;;;1.50;1.00;;;12.40;92.10;;;;;;5033223;28;20709;-84
2022/05/28 02:02:41;;;;;;;1.50;1.10;;;12.40;92.00;;;;;;5040898;28;20478;-84
2022/05/28 02:05:10;;;;;;;1.47;1.10;;;12.40;91.90;;;;;;5030728;28;20464;-83
2022/05/28 02:07:37;;;;;;;1.47;1.03;;;12.40;92.20;;;;;;5026041;28;20484;-82
2022/05/28 02:10:07;;;;;;;1.50;1.10;;;12.40;92.10;;;;;;5051563;28;20466;-82
2022/05/28 02:12:42;;;;;;;1.50;1.10;;;12.40;92.50;;;;;;5030689;28;20461;-83
2022/05/28 02:15:30;;;;;;;1.47;1.00;;;12.30;92.40;;;;;;5051736;28;20482;-81
2022/05/28 02:18:07;;;;;;;1.50;1.00;;;12.40;91.90;;;;;;5039520;28;20563;-82
2022/05/28 02:20:53;;;;;;;1.50;1.10;;;12.40;91.90;;;;;;5043226;28;20477;-82
2022/05/28 02:23:25;;;;;;;1.50;1.10;;;12.40;91.80;;;;;;5034866;28;20558;-84
2022/05/28 02:25:58;;;;;;;1.47;1.10;;;12.40;92.00;;;;;;5041065;28;20468;-80
2022/05/28 02:28:28;;;;;;;1.43;1.00;;;12.50;92.10;;;;;;5036279;28;20494;-80
2022/05/28 02:31:02;;;;;;;1.47;1.00;;;12.50;91.70;;;;;;5048203;28;20451;-82
2022/05/28 02:33:32;;;;;;;1.50;1.20;;;12.50;91.50;;;;;;5038548;28;20459;-81
2022/05/28 02:35:58;;;;;;;1.50;1.07;;;12.50;91.90;;;;;;5027091;28;20893;-81
2022/05/28 02:38:26;;;;;;;1.50;1.10;;;12.50;91.90;;;;;;5059287;28;20481;-81
2022/05/28 02:40:54;;;;;;;1.50;1.10;;;12.40;92.10;;;;;;5055017;28;20466;-82
2022/05/28 02:43:21;;;;;;;1.47;1.10;;;12.40;92.20;;;;;;5039965;28;20859;-82
2022/05/28 02:45:49;;;;;;;1.50;1.00;;;12.40;91.90;;;;;;5040455;28;20462;-81
2022/05/28 02:48:16;;;;;;;1.50;1.10;;;12.30;92.20;;;;;;5047727;28;20501;-83
2022/05/28 02:50:45;;;;;;;1.47;1.10;;;12.30;92.20;;;;;;5042115;28;20474;-81
2022/05/28 02:53:13;;;;;;;1.47;1.10;;;12.30;92.30;;;;;;5026340;28;20980;-82
2022/05/28 02:55:40;;;;;;;1.47;1.00;;;12.40;92.60;;;;;;5037850;28;20502;-84
2022/05/28 02:58:07;;;;;;;1.50;1.00;;;12.40;92.40;;;;;;5042520;28;20540;-80
2022/05/28 03:00:34;;;;;;;1.50;1.10;;;12.40;92.20;;;;;;5049916;28;20525;-84
2022/05/28 03:03:01;;;;;;;1.50;1.10;;;12.40;92.30;;;;;;5038634;28;20507;-81
2022/05/28 03:05:28;;;;;;;1.50;1.07;;;12.40;92.30;;;;;;5046505;28;20538;-82
2022/05/28 03:07:56;;;;;;;1.50;1.10;;;12.40;92.50;;;;;;5025481;28;20499;-83
2022/05/28 03:10:23;;;;;;;1.50;1.13;;;12.30;92.90;;;;;;5043882;28;20474;-81
2022/05/28 03:12:51;;;;;;;1.50;1.10;;;12.30;92.90;;;;;;5046981;28;20514;-83
2022/05/28 03:15:18;;;;;;;1.50;1.10;;;12.30;92.80;;;;;;5050349;28;20464;-81
2022/05/28 03:17:46;;;;;;;1.63;1.53;;;12.20;93.00;;;;;;5036044;28;20491;-82
2022/05/28 03:20:13;;;;;;;1.50;1.10;;;12.20;93.20;;;;;;5055540;28;20512;-80
2022/05/28 03:22:40;;;;;;;1.50;1.10;;;12.20;93.50;;;;;;5041379;28;20487;-81
2022/05/28 03:25:09;;;;;;;1.50;1.20;;;12.10;94.10;;;;;;5036528;28;20467;-81
2022/05/28 03:27:36;;;;;;;1.50;1.20;;;12.10;94.00;;;;;;5046848;28;20543;-81
2022/05/28 03:30:03;;;;;;;1.50;1.00;;;12.00;93.80;;;;;;5043178;28;20820;-80
2022/05/28 03:32:30;;;;;;;1.50;1.10;;;12.00;94.20;;;;;;5039570;28;20835;-83
2022/05/28 03:34:57;;;;;;;1.50;1.13;;;12.00;94.20;;;;;;5031463;28;20469;-84
2022/05/28 03:37:24;;;;;;;1.50;1.10;;;11.90;94.50;;;;;;5028509;28;20820;-80
2022/05/28 03:39:51;;;;;;;1.50;1.07;;;11.80;95.10;;;;;;5036839;28;20464;-81
2022/05/28 03:42:20;;;;;;;1.50;1.10;;;11.80;94.90;;;;;;5038237;28;20580;-81
2022/05/28 03:44:46;;;;;;;1.50;1.13;;;11.80;94.80;;;;;;5057696;28;20462;-80
2022/05/28 03:47:13;;;;;;;1.43;1.10;;;11.80;95.40;;;;;;5029004;28;20560;-83
2022/05/28 03:49:42;;;;;;;1.50;1.10;;;11.80;95.30;;;;;;5038736;22;20589;-76
2022/05/28 03:52:10;;;;;;;1.50;1.10;;;11.70;95.60;;;;;;5036791;28;20822;-76
2022/05/28 03:54:43;;;;;;;1.43;1.10;;;11.70;95.60;;;;;;5047547;28;20473;-76
2022/05/28 03:57:13;;;;;;;1.50;1.10;;;11.70;95.60;;;;;;5028743;28;21077;-76
2022/05/28 03:59:41;;;;;;;1.47;1.10;;;11.70;95.90;;;;;;5013555;28;20486;-75
2022/05/28 04:02:08;;;;;;;1.50;1.17;;;11.70;96.10;;;;;;5006891;28;20488;-76
2022/05/28 04:04:35;;;;;;;1.50;1.10;;;11.60;96.30;;;;;;5015055;28;20463;-77
2022/05/28 04:07:02;;;;;;;1.50;1.10;;;11.60;96.20;;;;;;5007211;28;20966;-76
2022/05/28 04:09:29;;;;;;;1.50;1.03;;;11.60;96.70;;;;;;5009224;28;20479;-76
2022/05/28 04:11:56;;;;;;;1.50;1.20;;;11.60;96.50;;;;;;5006303;28;20468;-76
2022/05/28 04:14:23;;;;;;;1.50;1.10;;;11.60;96.60;;;;;;5007742;28;21127;-76
2022/05/28 04:16:51;;;;;;;1.50;1.10;;;11.70;96.70;;;;;;5005242;28;20643;-76
2022/05/28 04:19:18;;;;;;;1.50;1.20;;;11.70;97.20;;;;;;5014039;28;20846;-76
2022/05/28 04:21:45;;;;;;;1.50;1.17;;;11.70;97.10;;;;;;5007544;28;20456;-77
2022/05/28 04:24:14;;;;;;;1.50;1.20;;;11.80;97.00;;;;;;5008252;28;20488;-76
2022/05/28 04:26:41;;;;;;;1.50;1.00;;;11.80;97.10;;;;;;4998793;28;20465;-76
2022/05/28 04:29:08;;;;;;;1.50;1.00;;;11.90;97.10;;;;;;5008041;28;20500;-77
2022/05/28 04:31:35;;;;;;;1.50;1.10;;;12.00;97.50;;;;;;5001105;28;20464;-77
2022/05/28 04:34:03;;;;;;;1.50;1.10;;;12.00;97.50;;;;;;5008127;28;20468;-77
2022/05/28 04:36:30;;;;;;;1.50;1.00;;;12.00;97.10;;;;;;5007719;28;20950;-77
2022/05/28 04:38:57;;;;;;;2.37;2.17;;;12.00;97.40;;;;;;5013719;28;20488;-77
2022/05/28 04:41:24;;;;;;;1.50;1.10;;;12.10;97.70;;;;;;4998032;28;20936;-76
2022/05/28 04:43:50;;;;;;;1.50;1.00;;;12.10;97.50;;;;;;5017600;28;20492;-76
2022/05/28 04:46:17;;;;;;;1.43;1.00;;;12.10;97.10;;;;;;5003544;28;20467;-76
2022/05/28 04:48:44;;;;;;;1.50;1.00;;;12.20;97.40;;;;;;5010163;28;20491;-78
2022/05/28 04:51:12;;;;;;;1.47;1.00;;;12.40;97.30;;;;;;5000736;28;21211;-76
2022/05/28 04:53:39;;;;;;;1.50;1.20;;;12.50;97.30;;;;;;5016452;28;20464;-77
2022/05/28 04:56:06;;;;;;;1.50;1.10;;;12.70;97.20;;;;;;5003261;28;20468;-77
2022/05/28 04:58:33;;;;;;;1.47;1.00;;;12.80;96.20;;;;;;5015920;28;20488;-77
2022/05/28 05:01:00;;;;;;;1.43;1.00;;;12.90;97.10;;;;;;5002109;28;20851;-77
2022/05/28 05:03:27;;;;;;;1.50;1.20;;;13.20;96.60;;;;;;5012151;28;20488;-77
2022/05/28 05:05:54;;;;;;;1.50;1.10;;;13.40;95.40;;;;;;5013754;28;20530;-77
2022/05/28 05:08:22;;;;;;;1.47;1.00;;;13.60;95.70;;;;;;5014081;28;20484;-77
2022/05/28 05:10:48;;;;;;;1.43;1.00;;;13.90;94.10;;;;;;5000235;28;20471;-76
2022/05/28 05:13:15;;;;;;;1.50;1.10;;;14.10;94.10;;;;;;5024060;28;20960;-77
2022/05/28 05:15:42;;;;;;;1.50;1.00;;;14.30;94.20;;;;;;5010833;28;20472;-76
2022/05/28 05:18:09;;;;;;;1.47;1.00;;;14.40;93.40;;;;;;5009638;28;20460;-77
2022/05/28 05:20:36;;;;;;;1.50;1.10;;;14.60;92.80;;;;;;5009804;28;20467;-78
2022/05/28 05:23:03;;;;;;;1.50;1.20;;;14.80;92.60;;;;;;5013273;28;20995;-77
2022/05/28 05:25:32;;;;;;;1.50;1.10;;;15.00;92.10;;;;;;5012647;28;20472;-77
2022/05/28 05:27:59;;;;;;;1.50;1.10;;;15.00;91.10;;;;;;5015187;28;20491;-82
2022/05/28 05:30:26;;;;;;;1.50;1.10;;;15.00;91.20;;;;;;5012975;28;20467;-82
2022/05/28 05:32:52;;;;;;;1.47;0.93;;;15.10;91.70;;;;;;5008052;28;20464;-78
2022/05/28 05:35:19;;;;;;;1.50;1.00;;;15.30;91.20;;;;;;5014786;28;20490;-78
2022/05/28 05:37:46;;;;;;;1.50;0.90;;;15.60;90.00;;;;;;5023288;28;20455;-79
2022/05/28 05:40:14;;;;;;;1.50;1.10;;;15.70;89.90;;;;;;5014560;28;20762;-79
2022/05/28 05:42:42;;;;;;;1.50;1.00;;;15.70;89.60;;;;;;5010981;28;20930;-78
2022/05/28 05:45:10;;;;;;;1.50;1.00;;;15.90;88.40;;;;;;5014302;28;20468;-77
2022/05/28 05:47:37;;;;;;;1.50;0.90;;;15.80;89.10;;;;;;5012385;28;20479;-78
2022/05/28 05:50:05;;;;;;;1.43;1.00;;;15.70;89.90;;;;;;5012852;28;20522;-80
2022/05/28 05:52:32;;;;;;;1.50;1.00;;;15.80;89.80;;;;;;5013872;28;21091;-78
2022/05/28 05:55:00;;;;;;;1.50;1.00;;;15.80;89.80;;;;;;5019450;28;20539;-78
2022/05/28 05:57:27;;;;;;;1.50;1.00;;;15.90;89.90;;;;;;5008062;28;20551;-77
2022/05/28 05:59:55;;;;;;;1.47;0.93;;;15.90;89.50;;;;;;5020083;28;20483;-76
2022/05/28 06:02:22;;;;;;;1.50;1.00;;;16.00;89.50;;;;;;5011796;28;20464;-76
2022/05/28 06:04:49;;;;;;;1.50;0.90;;;16.20;89.20;;;;;;5007855;28;20467;-76
2022/05/28 06:07:15;;;;;;;3.20;1.53;;;16.40;88.90;;;;;;5003599;28;20476;-76
2022/05/28 06:09:42;;;;;;;1.47;0.90;;;16.60;88.40;;;;;;5015296;28;20487;-77
2022/05/28 06:12:09;;;;;;;1.50;1.10;;;16.70;88.50;;;;;;5009977;28;20464;-77
2022/05/28 06:14:36;;;;;;;1.50;0.90;;;16.80;88.20;;;;;;5008846;28;20655;-77
2022/05/28 06:17:05;;;;;;;1.50;1.00;;;16.90;86.80;;;;;;5004430;28;20491;-77
2022/05/28 06:19:32;;;;;;;1.50;0.90;;;17.00;86.80;;;;;;5013939;28;20498;-76
2022/05/28 06:21:59;;;;;;;1.50;0.90;;;17.00;86.30;;;;;;5009526;28;20844;-77
2022/05/28 06:24:27;;;;;;;1.43;0.90;;;17.00;86.30;;;;;;5008570;28;20487;-77
2022/05/28 06:26:53;;;;;;;1.50;0.90;;;16.80;86.70;;;;;;5001189;28;20480;-77
2022/05/28 06:29:20;;;;;;;1.50;0.90;;;16.70;87.40;;;;;;5008731;28;20484;-77
2022/05/28 06:31:47;;;;;;;1.47;0.90;;;16.80;87.50;;;;;;5007170;28;20833;-77
2022/05/28 06:34:15;;;;;;;1.50;1.00;;;16.80;87.40;;;;;;5008228;28;20855;-77
2022/05/28 06:36:42;;;;;;;1.47;0.90;;;16.70;85.70;;;;;;5015651;28;20467;-77
2022/05/28 06:39:09;;;;;;;1.50;0.90;;;16.60;85.60;;;;;;5011053;28;20487;-76
2022/05/28 06:41:35;;;;;;;1.50;0.90;;;16.70;83.50;;;;;;5003608;28;20475;-77
2022/05/28 06:44:02;;;;;;;1.50;0.90;;;16.70;83.30;;;;;;5005391;28;20496;-76
2022/05/28 06:46:29;;;;;;;1.50;0.90;;;16.80;83.30;;;;;;5008681;28;20945;-77
2022/05/28 06:48:56;;;;;;;1.40;0.90;;;16.90;83.00;;;;;;5008130;28;20496;-77
2022/05/28 06:51:24;;;;;;;1.50;1.00;;;16.90;82.90;;;;;;5002447;28;20953;-77
2022/05/28 06:53:51;;;;;;;2.07;1.83;;;17.00;84.10;;;;;;5008571;28;20463;-77
2022/05/28 06:56:19;;;;;;;1.43;0.90;;;17.20;83.00;;;;;;5004410;28;20987;-76
2022/05/28 06:58:46;;;;;;;1.50;0.90;;;17.30;82.90;;;;;;5006896;28;20511;-76
2022/05/28 07:01:14;;;;;;;1.50;0.90;;;17.40;82.90;;;;;;5006495;28;20840;-76
2022/05/28 07:03:43;;;;;;;1.47;0.90;;;17.60;82.80;;;;;;5008451;28;20499;-76
2022/05/28 07:06:10;;;;;;;1.50;0.90;;;17.90;82.10;;;;;;5014557;28;20855;-77
2022/05/28 07:08:38;;;;;;;1.47;0.90;;;18.10;80.70;;;;;;5015475;28;20577;-77
2022/05/28 07:11:06;;;;;;;1.50;0.90;;;18.30;80.00;;;;;;5005084;28;20849;-76
2022/05/28 07:13:34;;;;;;;1.50;0.90;;;18.30;77.30;;;;;;5008048;28;20461;-76
2022/05/28 07:16:03;;;;;;;1.50;0.90;;;18.20;76.50;;;;;;5007159;28;20494;-76
2022/05/28 07:18:30;;;;;;;1.47;0.90;;;18.10;78.30;;;;;;5007063;28;20476;-76
2022/05/28 07:20:57;;;;;;;1.50;0.90;;;18.10;76.80;;;;;;5007643;28;20468;-78
2022/05/28 07:23:25;;;;;;;1.47;0.90;;;17.80;78.20;;;;;;5009309;28;20578;-78
2022/05/28 07:26:01;;;;;;;1.50;0.90;;;17.70;78.10;;;;;;5007963;28;20464;-78
2022/05/28 07:28:29;;;;;;;1.50;0.90;;;17.90;77.90;;;;;;5003131;28;20518;-78
2022/05/28 07:30:59;;;;;;;1.40;0.90;;;18.00;77.40;;;;;;5005217;28;20468;-79
2022/05/28 07:33:27;;;;;;;1.47;0.90;;;18.10;77.30;;;;;;5011864;28;21243;-76
2022/05/28 07:35:55;;;;;;;1.50;0.90;;;18.20;79.00;;;;;;5007601;28;20467;-78
2022/05/28 07:38:23;;;;;;;1.50;0.90;;;18.50;77.10;;;;;;5005717;28;20492;-77
2022/05/28 07:40:50;;;;;;;1.47;0.90;;;18.60;76.10;;;;;;5010565;28;20463;-77
2022/05/28 07:43:18;;;;;;;1.50;0.90;;;18.70;76.20;;;;;;5021573;28;20492;-78
2022/05/28 07:45:46;;;;;;;1.47;1.00;;;19.00;76.00;;;;;;5008405;28;20467;-78
2022/05/28 07:48:15;;;;;;;1.50;0.90;;;19.20;75.70;;;;;;5006881;28;20464;-76
2022/05/28 07:50:42;;;;;;;1.47;0.90;;;19.40;75.70;;;;;;5005656;28;20459;-76
2022/05/28 07:53:10;;;;;;;1.50;0.90;;;19.70;74.80;;;;;;5006704;28;20472;-74
2022/05/28 07:55:38;;;;;;;1.47;0.90;;;20.00;73.50;;;;;;5007244;28;20479;-78
2022/05/28 07:58:06;;;;;;;1.47;0.90;;;20.10;71.90;;;;;;5003780;28;20479;-78
2022/05/28 08:00:38;;;;;;;1.50;0.90;;;20.40;73.20;;;;;;4995670;28;20567;-78
2022/05/28 08:03:06;;;;;;;1.47;0.90;;;20.40;71.90;;;;;;5008053;28;20586;-78
2022/05/28 08:05:34;;;;;;;1.43;0.90;;;20.10;72.00;;;;;;5009857;28;20474;-78
2022/05/28 08:08:01;;;;;;;1.50;1.00;;;19.80;73.30;;;;;;5006949;28;20560;-77
2022/05/28 08:10:28;;;;;;;1.50;0.90;;;19.40;73.30;;;;;;5006069;28;20464;-76
2022/05/28 08:12:55;;;;;;;1.50;0.90;;;19.10;74.40;;;;;;5005186;28;20471;-77
2022/05/28 08:15:22;;;;;;;1.43;0.90;;;18.70;74.90;;;;;;5005807;28;20495;-77
2022/05/28 08:17:50;;;;;;;1.50;0.90;;;18.40;75.50;;;;;;5005122;28;20464;-77
2022/05/28 08:20:17;;;;;;;1.50;0.90;;;18.20;75.30;;;;;;5008448;28;20511;-76
2022/05/28 08:25:29;;;;;;;1.47;0.90;;;17.60;75.10;;;;;;5012035;28;21010;-76
2022/05/28 08:27:55;;;;;;;1.47;1.00;;;17.60;76.70;;;;;;5010014;28;20471;-76
2022/05/28 08:30:22;;;;;;;1.50;0.90;;;17.60;76.60;;;;;;5012389;28;20894;-77
2022/05/28 08:32:51;;;;;;;1.50;0.90;;;17.80;77.50;;;;;;5009845;28;20471;-77
2022/05/28 08:35:18;;;;;;;1.40;0.90;;;18.20;76.80;;;;;;5007166;28;20490;-77
2022/05/28 08:37:45;;;;;;;1.47;0.90;;;18.50;76.50;;;;;;5008419;28;20598;-76
2022/05/28 08:40:14;;;;;;;1.43;0.90;;;18.80;74.50;;;;;;5008168;28;20479;-77
2022/05/28 08:42:43;;;;;;;1.50;0.90;;;19.30;75.20;;;;;;5009212;28;20467;-78
2022/05/28 08:45:14;;;;;;;1.50;0.90;;;19.80;74.60;;;;;;5010337;28;20491;-76
2022/05/28 08:47:43;;;;;;;1.50;1.00;;;20.30;71.90;;;;;;4999755;28;20499;-74
2022/05/28 08:50:12;;;;;;;1.47;0.90;;;20.40;70.70;;;;;;5002702;28;20503;-74
2022/05/28 08:52:44;;;;;;;1.50;0.90;;;20.60;71.20;;;;;;5010543;28;20463;-74
2022/05/28 08:55:16;;;;;;;1.47;0.90;;;20.80;71.00;;;;;;5005402;28;20452;-77
2022/05/28 08:57:58;;;;;;;1.50;0.90;;;20.50;70.60;;;;;;5004466;28;20522;-77
2022/05/28 09:00:34;;;;;;;1.50;1.00;;;20.10;70.40;;;;;;5004358;28;20551;-77
2022/05/28 09:03:07;;;;;;;1.47;0.90;;;19.70;71.00;;;;;;5004765;28;20547;-76
2022/05/28 09:05:45;;;;;;;1.50;0.90;;;19.80;71.80;;;;;;5006487;28;20483;-77
2022/05/28 09:08:14;;;;;;;1.47;0.90;;;20.00;69.00;;;;;;5006003;28;20937;-77
2022/05/28 09:10:45;;;;;;;1.50;0.90;;;20.40;67.20;;;;;;5009039;28;20554;-76
2022/05/28 09:13:21;;;;;;;1.50;0.90;;;20.40;65.60;;;;;;5005548;28;20841;-76
2022/05/28 09:15:51;;;;;;;1.43;0.90;;;20.60;65.10;;;;;;5005232;28;20558;-77
2022/05/28 09:18:20;;;;;;;1.50;0.90;;;20.90;64.70;;;;;;5005072;28;20515;-77
2022/05/28 09:20:49;;;;;;;1.47;0.90;;;21.00;66.00;;;;;;5002620;28;20491;-77
2022/05/28 09:23:16;;;;;;;1.43;0.90;;;21.00;63.30;;;;;;5003474;28;20474;-77
2022/05/28 09:25:46;;;;;;;1.40;0.90;;;20.80;61.80;;;;;;5006023;28;20583;-76
2022/05/28 09:28:31;;;;;;;1.43;0.90;;;20.60;64.30;;;;;;5005663;28;20761;-76
2022/05/28 09:31:10;;;;;;;1.47;0.90;;;20.60;64.80;;;;;;5000021;28;21072;-77
2022/05/28 09:34:05;;;;;;;1.50;0.90;;;20.70;66.70;;;;;;5005645;28;20460;-77
2022/05/28 09:36:40;;;;;;;1.43;0.90;;;20.90;65.50;;;;;;5007419;28;20468;-76
2022/05/28 09:39:15;;;;;;;1.50;0.90;;;21.30;65.40;;;;;;5002886;28;20561;-77
2022/05/28 09:42:01;;;;;;;1.43;0.90;;;21.70;63.20;;;;;;5002251;28;20466;-77
2022/05/28 09:44:38;;;;;;;1.50;0.90;;;22.10;63.20;;;;;;5003077;28;20489;-77
2022/05/28 09:47:10;;;;;;;1.47;0.83;;;22.30;62.30;;;;;;5004075;28;20472;-77
2022/05/28 09:49:48;;;;;;;1.47;0.87;;;22.10;61.30;;;;;;5004328;28;20495;-76
2022/05/28 09:52:24;;;;;;;1.43;0.90;;;21.50;61.70;;;;;;5023659;22;20500;-81
2022/05/28 09:54:50;;;;;;;1.43;0.80;;;21.20;61.00;;;;;;4985823;28;20465;-80
2022/05/28 09:57:24;;;;;;;1.47;0.80;;;21.00;61.90;;;;;;4992759;28;20560;-79
2022/05/28 09:59:55;;;;;;;1.43;0.90;;;21.40;61.80;;;;;;4981514;28;20205;-79
2022/05/28 10:02:25;;;;;;;1.43;0.90;;;21.80;62.90;;;;;;4995771;28;20476;-79
2022/05/28 10:04:55;;;;;;;1.43;0.83;;;22.20;60.30;;;;;;4995291;28;20493;-78
2022/05/28 10:07:32;;;;;;;1.47;0.90;;;22.80;58.20;;;;;;4991654;28;20492;-79
2022/05/28 10:10:00;;;;;;;1.47;0.80;;;23.20;59.10;;;;;;4980203;28;20473;-79
2022/05/28 10:12:29;;;;;;;1.43;0.83;;;23.40;58.70;;;;;;4986661;28;20485;-80
2022/05/28 10:15:07;;;;;;;1.43;0.80;;;23.20;57.60;;;;;;4975661;28;20484;-79
2022/05/28 10:17:35;;;;;;;1.43;0.90;;;22.60;58.70;;;;;;4987034;28;20516;-80
2022/05/28 10:20:04;;;;;;;1.50;0.90;;;22.20;60.50;;;;;;5012263;28;20472;-80
2022/05/28 10:22:34;;;;;;;1.43;0.90;;;22.10;60.30;;;;;;4999956;28;20476;-79
2022/05/28 10:25:05;;;;;;;1.40;0.90;;;22.20;60.60;;;;;;5006838;28;20494;-78
2022/05/28 10:27:35;;;;;;;1.43;0.87;;;22.40;59.40;;;;;;4993638;28;20473;-80
2022/05/28 10:30:07;;;;;;;1.50;0.90;;;22.30;59.70;;;;;;4992793;28;20472;-79
2022/05/28 10:32:37;;;;;;;1.43;0.80;;;22.00;60.50;;;;;;4992544;28;20970;-80
2022/05/28 10:35:14;;;;;;;1.50;0.80;;;21.70;61.60;;;;;;4996435;28;20461;-80
2022/05/28 10:37:44;;;;;;;1.47;0.90;;;21.90;62.10;;;;;;4994689;28;20465;-81
2022/05/28 10:40:18;;;;;;;1.50;0.80;;;22.40;62.30;;;;;;4985363;28;20816;-80
2022/05/28 10:42:46;;;;;;;1.43;0.90;;;22.90;60.20;;;;;;4996665;28;20460;-80
2022/05/28 10:45:16;;;;;;;1.43;0.80;;;22.90;56.30;;;;;;4995963;28;20493;-80
2022/05/28 10:48:12;;;;;;;1.47;0.83;;;23.20;58.90;;;;;;4999494;28;20472;-79
2022/05/28 10:50:49;;;;;;;1.43;0.80;;;23.40;59.50;;;;;;4993603;28;20493;-79
2022/05/28 10:53:22;;;;;;;1.43;0.83;;;23.30;58.40;;;;;;4996031;28;20540;-79
2022/05/28 10:56:12;;;;;;;1.43;0.80;;;22.70;59.00;;;;;;4987640;28;20506;-80
2022/05/28 10:58:50;;;;;;;1.43;0.90;;;22.00;60.30;;;;;;4977039;28;20462;-80
2022/05/28 11:01:45;;;;;;;1.43;0.80;;;21.60;61.60;;;;;;4971734;28;20577;-78
2022/05/28 11:04:29;;;;;;;1.43;0.90;;;21.50;63.40;;;;;;4963530;28;20462;-80
2022/05/28 11:07:30;;;;;;;1.47;0.90;;;21.90;64.10;;;;;;4974441;28;20466;-78
2022/05/28 11:10:23;;;;;;;1.43;0.83;;;22.40;60.10;;;;;;4972386;28;20465;-79
2022/05/28 11:13:14;;;;;;;1.47;0.90;;;22.80;59.20;;;;;;5003430;28;20517;-79
2022/05/28 11:15:54;;;;;;;1.47;0.90;;;23.10;59.00;;;;;;5011136;28;20455;-78
2022/05/28 11:18:48;;;;;;;1.47;0.80;;;23.50;59.90;;;;;;4990712;28;20453;-78
2022/05/28 11:21:34;;;;;;;1.47;0.80;;;23.70;58.20;;;;;;4992306;28;21465;-78
2022/05/28 11:24:31;;;;;;;1.47;0.87;;;24.00;57.60;;;;;;4986495;28;20468;-79
2022/05/28 11:27:05;;;;;;;1.47;0.80;;;23.80;55.30;;;;;;4991059;28;20956;-78
2022/05/28 11:29:46;;;;;;;1.47;0.87;;;23.60;56.80;;;;;;4991542;28;20559;-78
2022/05/28 11:32:18;;;;;;;1.50;0.83;;;23.60;57.20;;;;;;4990722;28;20641;-78
2022/05/28 11:34:52;;;;;;;1.40;0.80;;;23.70;55.30;;;;;;4991109;28;20494;-77
2022/05/28 11:37:24;;;;;;;1.47;0.87;;;23.80;55.60;;;;;;4996045;28;20526;-79
2022/05/28 11:39:57;;;;;;;1.50;1.10;;;24.10;56.20;;;;;;4981730;28;20471;-79
2022/05/28 11:42:34;;;;;;;1.47;0.90;;;24.40;54.70;;;;;;4991985;28;20874;-81
2022/05/28 11:45:04;;;;;;;1.47;0.83;;;24.50;55.80;;;;;;4992915;28;20460;-80
2022/05/28 11:47:42;;;;;;;1.43;0.90;;;24.20;55.20;;;;;;4982551;28;20481;-80
2022/05/28 11:53:09;;;;;;;1.47;0.90;;;23.80;54.50;;;;;;4982860;28;20519;-80
2022/05/28 11:55:38;;;;;;;1.47;0.90;;;23.60;54.50;;;;;;4982252;28;20492;-80
2022/05/28 11:58:15;;;;;;;1.40;0.80;;;23.70;54.10;;;;;;4982698;28;20477;-80
2022/05/28 12:00:46;;;;;;;1.47;0.80;;;23.90;55.70;;;;;;4983483;28;20725;-80
2022/05/28 12:03:18;;;;;;;1.40;0.90;;;23.90;54.50;;;;;;4972524;28;20854;-79
2022/05/28 12:05:50;;;;;;;1.50;0.80;;;24.00;55.70;;;;;;4993470;28;20733;-80
2022/05/28 12:08:29;;;;;;;1.47;0.90;;;23.90;55.80;;;;;;4988443;28;21027;-79
2022/05/28 12:10:59;;;;;;;1.40;0.90;;;23.50;56.20;;;;;;4992463;28;20480;-80
2022/05/28 12:13:32;;;;;;;1.50;0.90;;;23.00;57.60;;;;;;4996203;28;20474;-80
2022/05/28 12:16:10;;;;;;;1.43;0.80;;;22.70;57.30;;;;;;4990982;28;20489;-80
2022/05/28 12:18:39;;;;;;;1.47;0.80;;;22.50;59.40;;;;;;4978075;28;20469;-80
2022/05/28 12:21:07;;;;;;;1.43;0.90;;;22.50;60.00;;;;;;4960678;28;20652;-80
2022/05/28 12:23:37;;;;;;;1.43;0.90;;;22.50;58.80;;;;;;5016840;28;20511;-80
2022/05/28 12:26:18;;;;;;;1.43;0.80;;;22.20;59.30;;;;;;5003446;28;21118;-81
2022/05/28 12:28:49;;;;;;;1.43;0.83;;;22.00;61.00;;;;;;4992502;28;20491;-79
2022/05/28 12:31:28;;;;;;;1.43;0.90;;;21.80;59.40;;;;;;4988493;28;20489;-80
2022/05/28 12:34:00;;;;;;;1.43;0.90;;;21.70;58.50;;;;;;4993436;28;20460;-79
2022/05/28 12:37:25;;;;;;;1.40;0.90;;;21.50;58.00;;;;;;5001002;28;20488;-79
2022/05/28 12:40:04;;;;;;;1.47;0.87;;;21.60;60.50;;;;;;4972103;28;20465;-80
2022/05/28 12:42:31;;;;;;;1.43;0.90;;;22.40;58.40;;;;;;4987164;28;20499;-79
2022/05/28 12:45:12;;;;;;;1.43;0.90;;;22.90;58.20;;;;;;4992834;28;20899;-79
2022/05/28 12:47:40;;;;;;;1.47;0.80;;;23.50;57.40;;;;;;5000135;28;20456;-79
2022/05/28 12:50:14;;;;;;;1.50;0.90;;;24.00;57.00;;;;;;4998633;28;20566;-78
2022/05/28 12:52:51;;;;;;;1.47;0.90;;;24.30;55.40;;;;;;5006348;28;20485;-79
2022/05/28 12:55:29;;;;;;;1.47;0.80;;;24.60;54.90;;;;;;5007402;28;20499;-79
2022/05/28 12:58:04;;;;;;;1.47;0.80;;;24.70;54.90;;;;;;4989163;28;20465;-79
2022/05/28 13:00:41;;;;;;;1.43;0.80;;;24.50;54.90;;;;;;4989425;28;20563;-80
2022/05/28 13:03:08;;;;;;;1.80;1.27;;;24.30;53.60;;;;;;4986782;28;20485;-80
2022/05/28 13:05:39;;;;;;;1.43;0.80;;;23.90;54.70;;;;;;4985463;28;20461;-80
2022/05/28 13:08:10;;;;;;;1.50;0.90;;;24.00;54.20;;;;;;4983032;28;20465;-79
2022/05/28 13:10:37;;;;;;;1.50;0.90;;;24.30;53.60;;;;;;4984874;28;21456;-79